createdAt,value
2022-08-01T00:04:48.114Z,18.22
2022-08-01T00:14:50.926Z,18.12
2022-08-01T00:24:54.016Z,18.17
2022-08-01T00:34:56.922Z,18.10
2022-08-01T00:44:59.924Z,18.18
2022-08-01T00:55:03.051Z,18.16
2022-08-01T01:05:06.347Z,18.12
2022-08-01T01:15:12.028Z,18.25
2022-08-01T01:25:33.032Z,18.14
2022-08-01T01:35:39.739Z,18.17
2022-08-01T01:45:45.232Z,18.12
2022-08-01T01:55:54.040Z,18.01
2022-08-01T02:05:58.283Z,18.06
2022-08-01T02:16:02.278Z,18.01
2022-08-01T02:26:11.752Z,17.85
2022-08-01T02:36:29.159Z,17.92
2022-08-01T02:46:58.822Z,18.13
2022-08-01T02:57:04.062Z,17.86
2022-08-01T03:07:10.696Z,17.81
2022-08-01T03:17:16.911Z,17.62
2022-08-01T03:27:25.504Z,17.75
2022-08-01T03:37:35.199Z,17.76
2022-08-01T03:47:43.551Z,17.84
2022-08-01T03:57:49.508Z,18.10
2022-08-01T04:07:56.852Z,18.20
2022-08-01T04:18:00.132Z,18.19
2022-08-01T04:28:05.366Z,18.21
2022-08-01T04:38:10.114Z,18.40
2022-08-01T04:48:13.776Z,18.54
2022-08-01T04:58:18.510Z,18.56
2022-08-01T05:08:21.688Z,18.65
2022-08-01T05:18:27.906Z,18.91
2022-08-01T05:28:30.727Z,18.96
2022-08-01T05:38:33.017Z,18.98
2022-08-01T05:48:38.719Z,18.92
2022-08-01T05:58:41.198Z,19.12
2022-08-01T06:08:43.648Z,19.23
2022-08-01T06:18:48.957Z,19.45
2022-08-01T06:28:51.296Z,19.54
2022-08-01T06:38:53.696Z,19.46
2022-08-01T06:48:56.009Z,19.77
2022-08-01T06:59:02.017Z,19.90
2022-08-01T07:09:09.619Z,19.83
2022-08-01T07:19:15.032Z,20.38
2022-08-01T07:29:17.274Z,20.70
2022-08-01T07:39:20.551Z,20.80
2022-08-01T07:49:23.545Z,20.96
2022-08-01T07:59:26.458Z,20.84
2022-08-01T08:04:12.705Z,21.23
2022-08-01T08:05:15.737Z,21.24
2022-08-01T08:06:38.310Z,21.29
2022-08-01T08:07:40.740Z,21.16
2022-08-01T08:08:45.631Z,21.38
2022-08-01T08:09:51.317Z,21.45
2022-08-01T08:10:53.980Z,21.52
2022-08-01T08:11:56.567Z,21.51
2022-08-01T08:12:59.095Z,21.64
2022-08-01T08:14:01.449Z,21.80
2022-08-01T08:15:06.896Z,21.62
2022-08-01T08:16:09.805Z,21.72
2022-08-01T08:17:14.800Z,21.54
2022-08-01T08:18:18.697Z,21.52
2022-08-01T08:19:21.189Z,21.52
2022-08-01T08:20:40.397Z,21.63
2022-08-01T08:21:42.856Z,21.56
2022-08-01T08:22:45.779Z,21.67
2022-08-01T08:24:09.865Z,21.56
2022-08-01T08:25:16.291Z,21.48
2022-08-01T08:26:18.721Z,21.45
2022-08-01T08:27:21.164Z,21.51
2022-08-01T08:28:28.137Z,21.55
2022-08-01T08:29:33.602Z,21.53
2022-08-01T08:30:36.127Z,21.60
2022-08-01T08:31:51.375Z,21.63
2022-08-01T08:32:55.317Z,21.65
2022-08-01T08:33:58.386Z,21.74
2022-08-01T08:35:00.730Z,21.78
2022-08-01T08:36:04.742Z,21.79
2022-08-01T08:37:09.508Z,21.93
2022-08-01T08:38:12.898Z,22.13
2022-08-01T08:39:19.886Z,22.32
2022-08-01T08:40:25.478Z,22.44
2022-08-01T08:41:28.242Z,22.60
2022-08-01T08:42:41.915Z,22.68
2022-08-01T08:43:48.511Z,22.61
2022-08-01T08:44:50.827Z,22.47
2022-08-01T08:45:58.761Z,22.46
2022-08-01T08:47:06.394Z,22.71
2022-08-01T08:48:13.858Z,22.85
2022-08-01T08:49:35.530Z,22.95
2022-08-01T08:50:40.247Z,22.86
2022-08-01T08:51:47.030Z,22.99
2022-08-01T08:52:51.046Z,23.21
2022-08-01T09:03:32.992Z,22.76
2022-08-01T09:13:36.442Z,23.47
2022-08-01T09:23:54.234Z,23.93
2022-08-01T09:34:00.363Z,24.84
2022-08-01T09:44:03.050Z,25.79
2022-08-01T09:54:08.001Z,25.52
2022-08-01T10:04:20.622Z,25.30
2022-08-01T10:14:25.946Z,24.61
2022-08-01T10:24:30.896Z,24.61
2022-08-01T10:34:35.155Z,24.88
2022-08-01T10:44:38.763Z,24.91
2022-08-01T10:54:52.227Z,25.17
2022-08-01T11:05:20.172Z,25.31
2022-08-01T11:15:31.250Z,25.12
2022-08-01T11:26:06.116Z,25.18
2022-08-01T11:36:13.174Z,25.52
2022-08-01T11:46:27.054Z,26.46
2022-08-01T11:56:38.327Z,28.45
2022-08-01T12:06:51.478Z,28.53
2022-08-01T12:16:56.496Z,29.99
2022-08-01T12:26:59.309Z,28.86
2022-08-01T12:37:03.880Z,28.83
2022-08-01T12:47:11.877Z,30.68
2022-08-01T12:57:27.810Z,30.27
2022-08-01T13:07:51.130Z,30.20
2022-08-01T13:17:55.615Z,30.20
2022-08-01T13:28:20.454Z,30.67
2022-08-01T13:38:42.356Z,30.33
2022-08-01T13:48:45.283Z,30.38
2022-08-01T13:58:48.812Z,30.51
2022-08-01T14:08:51.964Z,30.43
2022-08-01T14:18:55.244Z,30.60
2022-08-01T14:28:58.002Z,30.55
2022-08-01T14:39:01.125Z,29.94
2022-08-01T14:49:04.040Z,29.35
2022-08-01T14:59:21.050Z,29.28
2022-08-01T15:09:24.512Z,29.21
2022-08-01T15:19:27.900Z,29.20
2022-08-01T15:29:30.447Z,29.09
2022-08-01T15:39:35.768Z,28.70
2022-08-01T15:49:39.486Z,28.43
2022-08-01T15:59:42.070Z,28.21
2022-08-01T16:09:44.693Z,27.30
2022-08-01T16:19:47.157Z,27.22
2022-08-01T16:29:49.570Z,26.52
2022-08-01T16:39:52.318Z,26.14
2022-08-01T16:49:59.242Z,25.81
2022-08-01T17:00:01.750Z,25.41
2022-08-01T17:10:05.351Z,24.96
2022-08-01T17:20:08.509Z,24.70
2022-08-01T17:30:14.758Z,24.40
2022-08-01T17:40:39.144Z,24.09
2022-08-01T17:50:39.943Z,23.55
2022-08-01T18:00:42.318Z,23.07
2022-08-01T18:10:44.656Z,22.39
2022-08-01T18:20:48.300Z,21.88
2022-08-01T18:30:50.588Z,21.61
2022-08-01T18:40:53.093Z,21.37
2022-08-01T18:50:57.583Z,21.07
2022-08-01T19:00:59.857Z,20.91
2022-08-01T19:11:02.165Z,20.52
2022-08-01T19:21:06.834Z,20.27
2022-08-01T19:31:09.737Z,20.14
2022-08-01T19:41:14.046Z,20.10
2022-08-01T19:51:18.436Z,19.72
2022-08-01T20:01:21.601Z,19.77
2022-08-01T20:11:25.852Z,19.62
2022-08-01T20:21:29.239Z,19.59
2022-08-01T20:31:34.002Z,19.58
2022-08-01T20:42:00.081Z,19.46
2022-08-01T20:52:11.872Z,19.65
2022-08-01T21:02:38.112Z,19.77
2022-08-01T21:13:07.919Z,19.86
2022-08-01T21:23:27.614Z,20.01
2022-08-01T21:33:34.400Z,19.93
2022-08-01T21:43:37.699Z,19.74
2022-08-01T21:53:49.892Z,19.76
2022-08-01T22:03:56.373Z,19.82
2022-08-01T22:14:05.250Z,19.71
2022-08-01T22:24:07.994Z,19.71
2022-08-01T22:34:11.025Z,19.77
2022-08-01T22:44:16.595Z,19.67
2022-08-01T22:54:28.196Z,19.45
2022-08-01T23:04:46.626Z,19.32
2022-08-01T23:14:52.992Z,19.15
2022-08-01T23:25:04.421Z,18.95
2022-08-01T23:35:08.095Z,18.95
2022-08-01T23:45:11.114Z,18.92
2022-08-01T23:55:15.412Z,19.06
